sensor_id;sensor_type;location;lat;lon;timestamp;P1;durP1;ratioP1;P2;durP2;ratioP2
6205;SDS011;3136;48.788;9.772;2022-07-17T00:00:37;3.87;;;3.20;;
6205;SDS011;3136;48.788;9.772;2022-07-17T00:03:07;3.93;;;2.97;;
6205;SDS011;3136;48.788;9.772;2022-07-17T00:05:33;3.27;;;2.87;;
6205;SDS011;3136;48.788;9.772;2022-07-17T00:07:59;4.50;;;2.93;;
6205;SDS011;3136;48.788;9.772;2022-07-17T00:10:25;3.97;;;3.30;;
6205;SDS011;3136;48.788;9.772;2022-07-17T00:12:50;3.33;;;3.03;;
6205;SDS011;3136;48.788;9.772;2022-07-17T00:15:16;3.50;;;2.93;;
6205;SDS011;3136;48.788;9.772;2022-07-17T00:17:41;6.23;;;3.10;;
6205;SDS011;3136;48.788;9.772;2022-07-17T00:20:07;4.73;;;3.30;;
6205;SDS011;3136;48.788;9.772;2022-07-17T00:22:33;4.93;;;3.30;;
6205;SDS011;3136;48.788;9.772;2022-07-17T00:25:00;4.83;;;3.27;;
6205;SDS011;3136;48.788;9.772;2022-07-17T00:27:25;4.97;;;3.27;;
6205;SDS011;3136;48.788;9.772;2022-07-17T00:29:51;5.03;;;3.63;;
6205;SDS011;3136;48.788;9.772;2022-07-17T00:32:16;5.43;;;3.20;;
6205;SDS011;3136;48.788;9.772;2022-07-17T00:34:42;3.83;;;3.00;;
6205;SDS011;3136;48.788;9.772;2022-07-17T00:37:08;4.10;;;3.40;;
6205;SDS011;3136;48.788;9.772;2022-07-17T00:39:33;4.00;;;3.20;;
6205;SDS011;3136;48.788;9.772;2022-07-17T00:41:59;3.47;;;2.97;;
6205;SDS011;3136;48.788;9.772;2022-07-17T00:44:25;3.60;;;3.30;;
6205;SDS011;3136;48.788;9.772;2022-07-17T00:46:51;5.13;;;3.50;;
6205;SDS011;3136;48.788;9.772;2022-07-17T00:49:17;5.80;;;3.50;;
6205;SDS011;3136;48.788;9.772;2022-07-17T00:51:42;6.40;;;4.57;;
6205;SDS011;3136;48.788;9.772;2022-07-17T00:54:08;4.33;;;3.20;;
6205;SDS011;3136;48.788;9.772;2022-07-17T00:56:36;5.17;;;3.50;;
6205;SDS011;3136;48.788;9.772;2022-07-17T00:59:05;4.60;;;3.17;;
6205;SDS011;3136;48.788;9.772;2022-07-17T01:01:31;3.90;;;3.10;;
6205;SDS011;3136;48.788;9.772;2022-07-17T01:03:57;5.47;;;3.70;;
6205;SDS011;3136;48.788;9.772;2022-07-17T01:06:23;5.40;;;3.40;;
6205;SDS011;3136;48.788;9.772;2022-07-17T01:08:49;5.77;;;3.47;;
6205;SDS011;3136;48.788;9.772;2022-07-17T01:11:14;4.37;;;3.33;;
6205;SDS011;3136;48.788;9.772;2022-07-17T01:13:40;4.93;;;3.30;;
6205;SDS011;3136;48.788;9.772;2022-07-17T01:16:07;5.07;;;3.50;;
6205;SDS011;3136;48.788;9.772;2022-07-17T01:18:33;9.73;;;3.53;;
6205;SDS011;3136;48.788;9.772;2022-07-17T01:21:05;8.87;;;3.50;;
6205;SDS011;3136;48.788;9.772;2022-07-17T01:23:32;4.03;;;3.60;;
6205;SDS011;3136;48.788;9.772;2022-07-17T01:25:57;3.87;;;3.43;;
6205;SDS011;3136;48.788;9.772;2022-07-17T01:28:23;3.87;;;3.37;;
6205;SDS011;3136;48.788;9.772;2022-07-17T01:30:49;3.47;;;3.13;;
6205;SDS011;3136;48.788;9.772;2022-07-17T01:33:16;3.77;;;3.37;;
6205;SDS011;3136;48.788;9.772;2022-07-17T01:35:42;6.23;;;3.63;;
6205;SDS011;3136;48.788;9.772;2022-07-17T01:38:08;5.57;;;3.53;;
6205;SDS011;3136;48.788;9.772;2022-07-17T01:40:34;4.30;;;3.40;;
6205;SDS011;3136;48.788;9.772;2022-07-17T01:43:00;6.50;;;4.17;;
6205;SDS011;3136;48.788;9.772;2022-07-17T01:45:25;7.67;;;3.60;;
6205;SDS011;3136;48.788;9.772;2022-07-17T01:47:51;4.13;;;3.70;;
6205;SDS011;3136;48.788;9.772;2022-07-17T01:50:17;4.50;;;3.80;;
6205;SDS011;3136;48.788;9.772;2022-07-17T01:52:43;6.03;;;3.60;;
6205;SDS011;3136;48.788;9.772;2022-07-17T01:55:10;5.77;;;3.20;;
6205;SDS011;3136;48.788;9.772;2022-07-17T01:57:38;3.70;;;3.20;;
6205;SDS011;3136;48.788;9.772;2022-07-17T02:00:05;5.73;;;3.60;;
6205;SDS011;3136;48.788;9.772;2022-07-17T02:02:32;4.60;;;4.00;;
6205;SDS011;3136;48.788;9.772;2022-07-17T02:04:58;6.43;;;3.90;;
6205;SDS011;3136;48.788;9.772;2022-07-17T02:07:24;5.20;;;3.93;;
6205;SDS011;3136;48.788;9.772;2022-07-17T02:09:49;5.70;;;3.50;;
6205;SDS011;3136;48.788;9.772;2022-07-17T02:12:15;6.03;;;3.80;;
6205;SDS011;3136;48.788;9.772;2022-07-17T02:14:41;5.10;;;3.93;;
6205;SDS011;3136;48.788;9.772;2022-07-17T02:17:06;4.23;;;3.80;;
6205;SDS011;3136;48.788;9.772;2022-07-17T02:19:32;4.43;;;3.50;;
6205;SDS011;3136;48.788;9.772;2022-07-17T02:21:57;4.03;;;3.50;;
6205;SDS011;3136;48.788;9.772;2022-07-17T02:24:23;4.23;;;3.30;;
6205;SDS011;3136;48.788;9.772;2022-07-17T02:26:49;4.57;;;3.50;;
6205;SDS011;3136;48.788;9.772;2022-07-17T02:29:14;4.27;;;3.80;;
6205;SDS011;3136;48.788;9.772;2022-07-17T02:31:40;4.10;;;3.70;;
6205;SDS011;3136;48.788;9.772;2022-07-17T02:34:05;4.70;;;3.80;;
6205;SDS011;3136;48.788;9.772;2022-07-17T02:36:31;4.87;;;3.77;;
6205;SDS011;3136;48.788;9.772;2022-07-17T02:38:57;4.93;;;4.20;;
6205;SDS011;3136;48.788;9.772;2022-07-17T02:41:22;5.13;;;3.83;;
6205;SDS011;3136;48.788;9.772;2022-07-17T02:43:48;4.53;;;3.60;;
6205;SDS011;3136;48.788;9.772;2022-07-17T02:46:14;5.90;;;3.80;;
6205;SDS011;3136;48.788;9.772;2022-07-17T02:48:40;4.97;;;3.80;;
6205;SDS011;3136;48.788;9.772;2022-07-17T02:51:06;6.00;;;3.97;;
6205;SDS011;3136;48.788;9.772;2022-07-17T02:53:32;5.97;;;4.00;;
6205;SDS011;3136;48.788;9.772;2022-07-17T02:55:57;6.77;;;4.30;;
6205;SDS011;3136;48.788;9.772;2022-07-17T02:58:23;4.67;;;4.00;;
6205;SDS011;3136;48.788;9.772;2022-07-17T03:00:49;5.10;;;4.10;;
6205;SDS011;3136;48.788;9.772;2022-07-17T03:03:15;5.73;;;3.77;;
6205;SDS011;3136;48.788;9.772;2022-07-17T03:05:40;4.80;;;3.60;;
6205;SDS011;3136;48.788;9.772;2022-07-17T03:08:06;5.70;;;4.13;;
6205;SDS011;3136;48.788;9.772;2022-07-17T03:10:31;4.70;;;4.20;;
6205;SDS011;3136;48.788;9.772;2022-07-17T03:12:57;5.57;;;4.00;;
6205;SDS011;3136;48.788;9.772;2022-07-17T03:15:23;5.70;;;3.87;;
6205;SDS011;3136;48.788;9.772;2022-07-17T03:17:48;5.03;;;4.17;;
6205;SDS011;3136;48.788;9.772;2022-07-17T03:20:14;5.03;;;3.70;;
6205;SDS011;3136;48.788;9.772;2022-07-17T03:22:40;4.53;;;3.80;;
6205;SDS011;3136;48.788;9.772;2022-07-17T03:25:06;4.30;;;3.90;;
6205;SDS011;3136;48.788;9.772;2022-07-17T03:27:32;5.37;;;3.77;;
6205;SDS011;3136;48.788;9.772;2022-07-17T03:29:57;5.97;;;4.27;;
6205;SDS011;3136;48.788;9.772;2022-07-17T03:32:23;8.03;;;4.00;;
6205;SDS011;3136;48.788;9.772;2022-07-17T03:34:49;5.97;;;4.13;;
6205;SDS011;3136;48.788;9.772;2022-07-17T03:37:14;4.30;;;3.90;;
6205;SDS011;3136;48.788;9.772;2022-07-17T03:39:40;4.40;;;4.00;;
6205;SDS011;3136;48.788;9.772;2022-07-17T03:42:05;5.43;;;3.60;;
6205;SDS011;3136;48.788;9.772;2022-07-17T03:44:31;4.63;;;4.07;;
6205;SDS011;3136;48.788;9.772;2022-07-17T03:46:57;5.97;;;4.23;;
6205;SDS011;3136;48.788;9.772;2022-07-17T03:49:22;4.43;;;4.03;;
6205;SDS011;3136;48.788;9.772;2022-07-17T03:51:48;5.33;;;3.90;;
6205;SDS011;3136;48.788;9.772;2022-07-17T03:54:13;4.40;;;4.00;;
6205;SDS011;3136;48.788;9.772;2022-07-17T03:56:39;4.47;;;4.07;;
6205;SDS011;3136;48.788;9.772;2022-07-17T03:59:05;5.87;;;4.17;;
6205;SDS011;3136;48.788;9.772;2022-07-17T04:01:31;6.20;;;4.57;;
6205;SDS011;3136;48.788;9.772;2022-07-17T04:03:56;5.30;;;3.97;;
6205;SDS011;3136;48.788;9.772;2022-07-17T04:06:22;5.80;;;4.00;;
6205;SDS011;3136;48.788;9.772;2022-07-17T04:08:47;6.40;;;4.13;;
6205;SDS011;3136;48.788;9.772;2022-07-17T04:11:13;4.30;;;3.90;;
6205;SDS011;3136;48.788;9.772;2022-07-17T04:13:38;5.70;;;3.83;;
6205;SDS011;3136;48.788;9.772;2022-07-17T04:16:04;4.67;;;3.97;;
6205;SDS011;3136;48.788;9.772;2022-07-17T04:18:31;4.87;;;4.00;;
6205;SDS011;3136;48.788;9.772;2022-07-17T04:21:00;5.83;;;4.30;;
6205;SDS011;3136;48.788;9.772;2022-07-17T04:23:27;5.13;;;4.20;;
6205;SDS011;3136;48.788;9.772;2022-07-17T04:25:53;5.87;;;4.00;;
6205;SDS011;3136;48.788;9.772;2022-07-17T04:28:20;6.97;;;3.97;;
6205;SDS011;3136;48.788;9.772;2022-07-17T04:30:46;5.10;;;4.00;;
6205;SDS011;3136;48.788;9.772;2022-07-17T04:33:12;5.57;;;4.03;;
6205;SDS011;3136;48.788;9.772;2022-07-17T04:35:38;5.27;;;4.77;;
6205;SDS011;3136;48.788;9.772;2022-07-17T04:38:04;5.70;;;4.23;;
6205;SDS011;3136;48.788;9.772;2022-07-17T04:40:30;5.50;;;4.07;;
6205;SDS011;3136;48.788;9.772;2022-07-17T04:42:56;4.60;;;4.20;;
6205;SDS011;3136;48.788;9.772;2022-07-17T04:45:22;4.90;;;4.40;;
6205;SDS011;3136;48.788;9.772;2022-07-17T04:47:47;5.10;;;4.00;;
6205;SDS011;3136;48.788;9.772;2022-07-17T04:50:13;5.30;;;4.17;;
6205;SDS011;3136;48.788;9.772;2022-07-17T04:52:39;5.43;;;3.90;;
6205;SDS011;3136;48.788;9.772;2022-07-17T04:55:05;6.60;;;3.93;;
6205;SDS011;3136;48.788;9.772;2022-07-17T04:57:30;6.67;;;4.30;;
6205;SDS011;3136;48.788;9.772;2022-07-17T04:59:56;4.93;;;4.00;;
6205;SDS011;3136;48.788;9.772;2022-07-17T05:02:22;6.60;;;4.20;;
6205;SDS011;3136;48.788;9.772;2022-07-17T05:04:48;4.43;;;4.00;;
6205;SDS011;3136;48.788;9.772;2022-07-17T05:07:14;8.67;;;4.83;;
6205;SDS011;3136;48.788;9.772;2022-07-17T05:09:39;4.63;;;4.00;;
6205;SDS011;3136;48.788;9.772;2022-07-17T05:12:05;6.87;;;4.43;;
6205;SDS011;3136;48.788;9.772;2022-07-17T05:14:31;4.40;;;4.00;;
6205;SDS011;3136;48.788;9.772;2022-07-17T05:16:56;4.67;;;4.07;;
6205;SDS011;3136;48.788;9.772;2022-07-17T05:19:22;4.40;;;4.00;;
6205;SDS011;3136;48.788;9.772;2022-07-17T05:21:48;5.20;;;4.00;;
6205;SDS011;3136;48.788;9.772;2022-07-17T05:24:15;6.23;;;4.33;;
6205;SDS011;3136;48.788;9.772;2022-07-17T05:26:40;5.10;;;4.33;;
6205;SDS011;3136;48.788;9.772;2022-07-17T05:29:06;8.40;;;4.27;;
6205;SDS011;3136;48.788;9.772;2022-07-17T05:31:32;6.93;;;4.60;;
6205;SDS011;3136;48.788;9.772;2022-07-17T05:33:58;5.10;;;4.60;;
6205;SDS011;3136;48.788;9.772;2022-07-17T05:36:23;4.67;;;3.90;;
6205;SDS011;3136;48.788;9.772;2022-07-17T05:38:49;4.80;;;4.23;;
6205;SDS011;3136;48.788;9.772;2022-07-17T05:41:14;5.53;;;4.20;;
6205;SDS011;3136;48.788;9.772;2022-07-17T05:43:40;5.90;;;3.80;;
6205;SDS011;3136;48.788;9.772;2022-07-17T05:46:05;4.70;;;3.77;;
6205;SDS011;3136;48.788;9.772;2022-07-17T05:48:31;4.53;;;3.90;;
6205;SDS011;3136;48.788;9.772;2022-07-17T05:50:57;3.93;;;3.63;;
6205;SDS011;3136;48.788;9.772;2022-07-17T05:53:23;5.20;;;3.97;;
6205;SDS011;3136;48.788;9.772;2022-07-17T05:55:48;6.53;;;3.87;;
6205;SDS011;3136;48.788;9.772;2022-07-17T05:58:14;4.80;;;3.60;;
6205;SDS011;3136;48.788;9.772;2022-07-17T06:00:40;3.93;;;3.47;;
6205;SDS011;3136;48.788;9.772;2022-07-17T06:03:06;5.03;;;3.83;;
6205;SDS011;3136;48.788;9.772;2022-07-17T06:05:31;5.40;;;3.63;;
6205;SDS011;3136;48.788;9.772;2022-07-17T06:07:57;4.90;;;3.47;;
6205;SDS011;3136;48.788;9.772;2022-07-17T06:10:24;5.50;;;3.87;;
6205;SDS011;3136;48.788;9.772;2022-07-17T06:12:50;4.93;;;3.67;;
6205;SDS011;3136;48.788;9.772;2022-07-17T06:15:17;6.87;;;3.63;;
6205;SDS011;3136;48.788;9.772;2022-07-17T06:17:44;3.83;;;3.50;;
6205;SDS011;3136;48.788;9.772;2022-07-17T06:20:10;4.37;;;3.07;;
6205;SDS011;3136;48.788;9.772;2022-07-17T06:22:37;3.43;;;2.90;;
6205;SDS011;3136;48.788;9.772;2022-07-17T06:25:03;4.23;;;2.97;;
6205;SDS011;3136;48.788;9.772;2022-07-17T06:27:28;4.00;;;2.40;;
6205;SDS011;3136;48.788;9.772;2022-07-17T06:29:54;5.03;;;3.23;;
6205;SDS011;3136;48.788;9.772;2022-07-17T06:32:20;3.53;;;3.10;;
6205;SDS011;3136;48.788;9.772;2022-07-17T06:34:46;3.77;;;2.73;;
6205;SDS011;3136;48.788;9.772;2022-07-17T06:37:12;3.73;;;3.00;;
6205;SDS011;3136;48.788;9.772;2022-07-17T06:39:38;5.03;;;2.80;;
6205;SDS011;3136;48.788;9.772;2022-07-17T06:42:03;3.90;;;2.70;;
6205;SDS011;3136;48.788;9.772;2022-07-17T06:44:29;3.43;;;2.83;;
6205;SDS011;3136;48.788;9.772;2022-07-17T06:46:55;3.43;;;2.80;;
6205;SDS011;3136;48.788;9.772;2022-07-17T06:49:21;6.30;;;2.60;;
6205;SDS011;3136;48.788;9.772;2022-07-17T06:51:47;3.77;;;2.80;;
6205;SDS011;3136;48.788;9.772;2022-07-17T06:54:13;4.00;;;2.70;;
6205;SDS011;3136;48.788;9.772;2022-07-17T06:56:40;2.50;;;2.30;;
6205;SDS011;3136;48.788;9.772;2022-07-17T06:59:05;3.30;;;2.40;;
6205;SDS011;3136;48.788;9.772;2022-07-17T07:01:35;3.83;;;2.60;;
6205;SDS011;3136;48.788;9.772;2022-07-17T07:04:01;6.47;;;2.40;;
6205;SDS011;3136;48.788;9.772;2022-07-17T07:06:28;3.53;;;2.40;;
6205;SDS011;3136;48.788;9.772;2022-07-17T07:08:53;3.73;;;2.30;;
6205;SDS011;3136;48.788;9.772;2022-07-17T07:11:20;2.70;;;2.20;;
6205;SDS011;3136;48.788;9.772;2022-07-17T07:13:46;2.67;;;2.40;;
6205;SDS011;3136;48.788;9.772;2022-07-17T07:16:11;2.63;;;2.20;;
6205;SDS011;3136;48.788;9.772;2022-07-17T07:18:37;4.83;;;2.20;;
6205;SDS011;3136;48.788;9.772;2022-07-17T07:21:02;3.40;;;2.30;;
6205;SDS011;3136;48.788;9.772;2022-07-17T07:23:28;7.23;;;2.40;;
6205;SDS011;3136;48.788;9.772;2022-07-17T07:25:54;7.30;;;2.17;;
6205;SDS011;3136;48.788;9.772;2022-07-17T07:28:19;2.33;;;2.10;;
6205;SDS011;3136;48.788;9.772;2022-07-17T07:30:45;3.03;;;1.67;;
6205;SDS011;3136;48.788;9.772;2022-07-17T07:33:11;2.23;;;2.00;;
6205;SDS011;3136;48.788;9.772;2022-07-17T07:35:39;2.43;;;2.10;;
6205;SDS011;3136;48.788;9.772;2022-07-17T07:38:05;3.90;;;2.30;;
6205;SDS011;3136;48.788;9.772;2022-07-17T07:40:31;2.17;;;1.77;;
6205;SDS011;3136;48.788;9.772;2022-07-17T07:42:56;2.90;;;1.90;;
6205;SDS011;3136;48.788;9.772;2022-07-17T07:45:23;1.90;;;1.80;;
6205;SDS011;3136;48.788;9.772;2022-07-17T07:47:49;2.87;;;1.90;;
6205;SDS011;3136;48.788;9.772;2022-07-17T07:50:15;2.37;;;1.93;;
6205;SDS011;3136;48.788;9.772;2022-07-17T07:52:41;2.80;;;1.80;;
6205;SDS011;3136;48.788;9.772;2022-07-17T07:55:07;3.77;;;2.10;;
6205;SDS011;3136;48.788;9.772;2022-07-17T07:57:35;2.10;;;1.77;;
6205;SDS011;3136;48.788;9.772;2022-07-17T08:00:00;2.47;;;1.90;;
6205;SDS011;3136;48.788;9.772;2022-07-17T08:02:26;2.70;;;2.00;;
6205;SDS011;3136;48.788;9.772;2022-07-17T08:04:51;3.40;;;1.90;;
6205;SDS011;3136;48.788;9.772;2022-07-17T08:07:17;2.40;;;1.73;;
6205;SDS011;3136;48.788;9.772;2022-07-17T08:09:43;2.20;;;1.80;;
6205;SDS011;3136;48.788;9.772;2022-07-17T08:12:08;3.53;;;2.07;;
6205;SDS011;3136;48.788;9.772;2022-07-17T08:14:34;2.00;;;1.80;;
6205;SDS011;3136;48.788;9.772;2022-07-17T08:16:59;2.50;;;1.70;;
6205;SDS011;3136;48.788;9.772;2022-07-17T08:19:25;2.63;;;1.77;;
6205;SDS011;3136;48.788;9.772;2022-07-17T08:21:50;2.37;;;1.80;;
6205;SDS011;3136;48.788;9.772;2022-07-17T08:24:16;3.20;;;1.87;;
6205;SDS011;3136;48.788;9.772;2022-07-17T08:26:42;2.27;;;1.70;;
6205;SDS011;3136;48.788;9.772;2022-07-17T08:29:08;2.87;;;1.77;;
6205;SDS011;3136;48.788;9.772;2022-07-17T08:31:34;3.43;;;2.10;;
6205;SDS011;3136;48.788;9.772;2022-07-17T08:34:00;1.60;;;1.50;;
6205;SDS011;3136;48.788;9.772;2022-07-17T08:36:26;4.63;;;1.80;;
6205;SDS011;3136;48.788;9.772;2022-07-17T08:38:52;2.23;;;1.90;;
6205;SDS011;3136;48.788;9.772;2022-07-17T08:41:17;3.27;;;1.87;;
6205;SDS011;3136;48.788;9.772;2022-07-17T08:43:46;7.50;;;2.10;;
6205;SDS011;3136;48.788;9.772;2022-07-17T08:46:13;1.83;;;1.73;;
6205;SDS011;3136;48.788;9.772;2022-07-17T08:48:44;2.03;;;1.80;;
6205;SDS011;3136;48.788;9.772;2022-07-17T08:51:11;3.53;;;1.90;;
6205;SDS011;3136;48.788;9.772;2022-07-17T08:53:40;2.47;;;1.73;;
6205;SDS011;3136;48.788;9.772;2022-07-17T08:56:07;1.83;;;1.67;;
6205;SDS011;3136;48.788;9.772;2022-07-17T08:58:32;3.30;;;1.70;;
6205;SDS011;3136;48.788;9.772;2022-07-17T09:00:58;6.87;;;1.90;;
6205;SDS011;3136;48.788;9.772;2022-07-17T09:03:24;3.83;;;1.80;;
6205;SDS011;3136;48.788;9.772;2022-07-17T09:05:50;2.90;;;1.97;;
6205;SDS011;3136;48.788;9.772;2022-07-17T09:08:17;2.17;;;1.80;;
6205;SDS011;3136;48.788;9.772;2022-07-17T09:10:46;3.20;;;1.97;;
6205;SDS011;3136;48.788;9.772;2022-07-17T09:13:16;2.80;;;1.70;;
6205;SDS011;3136;48.788;9.772;2022-07-17T09:15:43;2.43;;;1.70;;
6205;SDS011;3136;48.788;9.772;2022-07-17T09:18:10;1.80;;;1.70;;
6205;SDS011;3136;48.788;9.772;2022-07-17T09:20:38;4.23;;;1.80;;
6205;SDS011;3136;48.788;9.772;2022-07-17T09:23:08;3.10;;;1.90;;
6205;SDS011;3136;48.788;9.772;2022-07-17T09:25:39;4.53;;;1.97;;
6205;SDS011;3136;48.788;9.772;2022-07-17T09:28:09;2.27;;;1.70;;
6205;SDS011;3136;48.788;9.772;2022-07-17T09:30:38;2.67;;;1.83;;
6205;SDS011;3136;48.788;9.772;2022-07-17T09:33:07;2.53;;;1.70;;
6205;SDS011;3136;48.788;9.772;2022-07-17T09:35:43;2.77;;;1.83;;
6205;SDS011;3136;48.788;9.772;2022-07-17T09:38:30;2.30;;;1.60;;
6205;SDS011;3136;48.788;9.772;2022-07-17T09:43:41;4.60;;;1.80;;
6205;SDS011;3136;48.788;9.772;2022-07-17T09:46:17;3.13;;;1.50;;
6205;SDS011;3136;48.788;9.772;2022-07-17T09:48:46;2.10;;;1.50;;
6205;SDS011;3136;48.788;9.772;2022-07-17T09:51:27;1.50;;;1.40;;
6205;SDS011;3136;48.788;9.772;2022-07-17T09:53:54;1.60;;;1.50;;
6205;SDS011;3136;48.788;9.772;2022-07-17T09:56:22;3.83;;;1.50;;
6205;SDS011;3136;48.788;9.772;2022-07-17T09:58:50;2.40;;;1.60;;
6205;SDS011;3136;48.788;9.772;2022-07-17T10:01:17;1.93;;;1.53;;
6205;SDS011;3136;48.788;9.772;2022-07-17T10:03:43;2.07;;;1.60;;
6205;SDS011;3136;48.788;9.772;2022-07-17T10:06:10;2.33;;;1.60;;
6205;SDS011;3136;48.788;9.772;2022-07-17T10:08:36;4.10;;;1.80;;
6205;SDS011;3136;48.788;9.772;2022-07-17T10:11:04;3.87;;;1.77;;
6205;SDS011;3136;48.788;9.772;2022-07-17T10:13:31;2.23;;;1.80;;
6205;SDS011;3136;48.788;9.772;2022-07-17T10:15:56;4.93;;;1.40;;
6205;SDS011;3136;48.788;9.772;2022-07-17T10:18:33;1.73;;;1.50;;
6205;SDS011;3136;48.788;9.772;2022-07-17T10:21:10;16.17;;;5.23;;
6205;SDS011;3136;48.788;9.772;2022-07-17T10:23:38;1.50;;;1.40;;
6205;SDS011;3136;48.788;9.772;2022-07-17T10:26:04;2.40;;;1.70;;
6205;SDS011;3136;48.788;9.772;2022-07-17T10:31:04;1.60;;;1.47;;
6205;SDS011;3136;48.788;9.772;2022-07-17T10:33:30;1.53;;;1.43;;
6205;SDS011;3136;48.788;9.772;2022-07-17T10:35:55;2.07;;;1.43;;
6205;SDS011;3136;48.788;9.772;2022-07-17T10:38:24;2.07;;;1.57;;
6205;SDS011;3136;48.788;9.772;2022-07-17T10:41:01;1.33;;;1.23;;
6205;SDS011;3136;48.788;9.772;2022-07-17T10:43:39;4.20;;;1.80;;
6205;SDS011;3136;48.788;9.772;2022-07-17T10:46:08;1.90;;;1.70;;
6205;SDS011;3136;48.788;9.772;2022-07-17T10:48:34;3.73;;;1.80;;
6205;SDS011;3136;48.788;9.772;2022-07-17T10:51:00;2.20;;;1.57;;
6205;SDS011;3136;48.788;9.772;2022-07-17T10:53:30;1.73;;;1.47;;
6205;SDS011;3136;48.788;9.772;2022-07-17T10:56:04;6.63;;;2.03;;
6205;SDS011;3136;48.788;9.772;2022-07-17T11:01:15;1.63;;;1.38;;
6205;SDS011;3136;48.788;9.772;2022-07-17T11:06:22;1.42;;;1.33;;
6205;SDS011;3136;48.788;9.772;2022-07-17T11:09:08;1.85;;;1.30;;
6205;SDS011;3136;48.788;9.772;2022-07-17T11:11:37;3.83;;;1.65;;
6205;SDS011;3136;48.788;9.772;2022-07-17T11:16:44;1.35;;;1.25;;
6205;SDS011;3136;48.788;9.772;2022-07-17T11:19:20;1.98;;;1.40;;
6205;SDS011;3136;48.788;9.772;2022-07-17T11:21:46;1.48;;;1.38;;
6205;SDS011;3136;48.788;9.772;2022-07-17T11:24:13;2.67;;;1.20;;
6205;SDS011;3136;48.788;9.772;2022-07-17T11:26:39;2.17;;;1.60;;
6205;SDS011;3136;48.788;9.772;2022-07-17T11:29:04;2.15;;;1.50;;
6205;SDS011;3136;48.788;9.772;2022-07-17T11:31:30;3.22;;;1.50;;
6205;SDS011;3136;48.788;9.772;2022-07-17T11:36:31;3.45;;;1.58;;
6205;SDS011;3136;48.788;9.772;2022-07-17T11:39:05;4.78;;;1.52;;
6205;SDS011;3136;48.788;9.772;2022-07-17T11:41:39;3.30;;;1.40;;
6205;SDS011;3136;48.788;9.772;2022-07-17T11:44:10;2.58;;;1.50;;
6205;SDS011;3136;48.788;9.772;2022-07-17T11:46:39;1.30;;;1.20;;
6205;SDS011;3136;48.788;9.772;2022-07-17T11:49:06;4.32;;;1.20;;
6205;SDS011;3136;48.788;9.772;2022-07-17T11:51:33;2.08;;;1.30;;
6205;SDS011;3136;48.788;9.772;2022-07-17T11:54:03;1.27;;;1.17;;
6205;SDS011;3136;48.788;9.772;2022-07-17T11:56:30;1.25;;;1.15;;
6205;SDS011;3136;48.788;9.772;2022-07-17T11:58:55;2.05;;;1.40;;
6205;SDS011;3136;48.788;9.772;2022-07-17T12:01:21;1.25;;;1.15;;
6205;SDS011;3136;48.788;9.772;2022-07-17T12:03:56;1.83;;;1.38;;
6205;SDS011;3136;48.788;9.772;2022-07-17T12:06:25;1.60;;;1.50;;
6205;SDS011;3136;48.788;9.772;2022-07-17T12:08:54;1.35;;;1.25;;
6205;SDS011;3136;48.788;9.772;2022-07-17T12:11:20;1.40;;;1.30;;
6205;SDS011;3136;48.788;9.772;2022-07-17T12:13:46;1.45;;;1.30;;
6205;SDS011;3136;48.788;9.772;2022-07-17T12:16:45;1.40;;;1.30;;
6205;SDS011;3136;48.788;9.772;2022-07-17T12:19:06;1.33;;;1.23;;
6205;SDS011;3136;48.788;9.772;2022-07-17T12:24:25;2.85;;;1.30;;
6205;SDS011;3136;48.788;9.772;2022-07-17T12:26:54;6.60;;;1.25;;
6205;SDS011;3136;48.788;9.772;2022-07-17T12:29:21;3.42;;;1.25;;
6205;SDS011;3136;48.788;9.772;2022-07-17T12:31:46;1.30;;;1.20;;
6205;SDS011;3136;48.788;9.772;2022-07-17T12:34:12;1.98;;;1.15;;
6205;SDS011;3136;48.788;9.772;2022-07-17T12:36:38;1.35;;;1.20;;
6205;SDS011;3136;48.788;9.772;2022-07-17T12:39:04;1.40;;;1.10;;
6205;SDS011;3136;48.788;9.772;2022-07-17T12:41:29;1.42;;;1.10;;
6205;SDS011;3136;48.788;9.772;2022-07-17T12:43:55;5.03;;;1.40;;
6205;SDS011;3136;48.788;9.772;2022-07-17T12:46:20;1.50;;;1.40;;
6205;SDS011;3136;48.788;9.772;2022-07-17T12:48:46;1.50;;;1.40;;
6205;SDS011;3136;48.788;9.772;2022-07-17T12:51:12;1.38;;;1.23;;
6205;SDS011;3136;48.788;9.772;2022-07-17T12:53:39;1.48;;;1.38;;
6205;SDS011;3136;48.788;9.772;2022-07-17T12:56:06;2.67;;;1.40;;
6205;SDS011;3136;48.788;9.772;2022-07-17T12:58:32;2.13;;;1.23;;
6205;SDS011;3136;48.788;9.772;2022-07-17T13:00:58;1.65;;;1.20;;
6205;SDS011;3136;48.788;9.772;2022-07-17T13:03:27;2.33;;;1.40;;
6205;SDS011;3136;48.788;9.772;2022-07-17T13:05:53;1.38;;;1.27;;
6205;SDS011;3136;48.788;9.772;2022-07-17T13:08:19;2.85;;;1.80;;
6205;SDS011;3136;48.788;9.772;2022-07-17T13:10:45;2.90;;;1.48;;
6205;SDS011;3136;48.788;9.772;2022-07-17T13:13:10;1.65;;;1.20;;
6205;SDS011;3136;48.788;9.772;2022-07-17T13:15:36;1.50;;;1.30;;
6205;SDS011;3136;48.788;9.772;2022-07-17T13:18:02;1.83;;;1.30;;
6205;SDS011;3136;48.788;9.772;2022-07-17T13:20:28;1.38;;;1.20;;
6205;SDS011;3136;48.788;9.772;2022-07-17T13:22:54;1.75;;;1.30;;
6205;SDS011;3136;48.788;9.772;2022-07-17T13:25:20;1.83;;;1.35;;
6205;SDS011;3136;48.788;9.772;2022-07-17T13:27:46;1.30;;;1.20;;
6205;SDS011;3136;48.788;9.772;2022-07-17T13:30:11;3.03;;;1.10;;
6205;SDS011;3136;48.788;9.772;2022-07-17T13:32:37;1.35;;;1.25;;
6205;SDS011;3136;48.788;9.772;2022-07-17T13:35:04;1.45;;;1.10;;
6205;SDS011;3136;48.788;9.772;2022-07-17T13:37:31;1.20;;;1.10;;
6205;SDS011;3136;48.788;9.772;2022-07-17T13:39:56;2.53;;;1.17;;
6205;SDS011;3136;48.788;9.772;2022-07-17T13:42:22;1.73;;;1.30;;
6205;SDS011;3136;48.788;9.772;2022-07-17T13:44:48;2.75;;;1.48;;
6205;SDS011;3136;48.788;9.772;2022-07-17T13:47:13;1.40;;;1.30;;
6205;SDS011;3136;48.788;9.772;2022-07-17T13:49:40;4.10;;;1.15;;
6205;SDS011;3136;48.788;9.772;2022-07-17T13:52:05;3.92;;;1.55;;
6205;SDS011;3136;48.788;9.772;2022-07-17T13:54:31;1.40;;;1.30;;
6205;SDS011;3136;48.788;9.772;2022-07-17T13:57:00;2.42;;;1.40;;
6205;SDS011;3136;48.788;9.772;2022-07-17T13:59:26;1.30;;;1.20;;
6205;SDS011;3136;48.788;9.772;2022-07-17T14:01:52;1.20;;;1.10;;
6205;SDS011;3136;48.788;9.772;2022-07-17T14:04:17;1.33;;;1.20;;
6205;SDS011;3136;48.788;9.772;2022-07-17T14:06:43;1.30;;;1.20;;
6205;SDS011;3136;48.788;9.772;2022-07-17T14:09:09;2.38;;;1.30;;
6205;SDS011;3136;48.788;9.772;2022-07-17T14:11:35;2.88;;;1.20;;
6205;SDS011;3136;48.788;9.772;2022-07-17T14:14:02;1.50;;;1.40;;
6205;SDS011;3136;48.788;9.772;2022-07-17T14:16:28;2.20;;;1.20;;
6205;SDS011;3136;48.788;9.772;2022-07-17T14:18:53;1.60;;;1.30;;
6205;SDS011;3136;48.788;9.772;2022-07-17T14:21:26;1.35;;;1.25;;
6205;SDS011;3136;48.788;9.772;2022-07-17T14:23:53;1.33;;;1.15;;
6205;SDS011;3136;48.788;9.772;2022-07-17T14:26:19;2.75;;;1.20;;
6205;SDS011;3136;48.788;9.772;2022-07-17T14:28:44;1.40;;;1.30;;
6205;SDS011;3136;48.788;9.772;2022-07-17T14:31:10;2.72;;;1.25;;
6205;SDS011;3136;48.788;9.772;2022-07-17T14:33:35;1.40;;;1.30;;
6205;SDS011;3136;48.788;9.772;2022-07-17T14:36:01;1.75;;;1.27;;
6205;SDS011;3136;48.788;9.772;2022-07-17T14:38:27;1.30;;;1.20;;
6205;SDS011;3136;48.788;9.772;2022-07-17T14:40:52;1.63;;;1.50;;
6205;SDS011;3136;48.788;9.772;2022-07-17T14:43:18;1.48;;;1.35;;
6205;SDS011;3136;48.788;9.772;2022-07-17T14:45:44;2.83;;;1.27;;
6205;SDS011;3136;48.788;9.772;2022-07-17T14:48:09;1.67;;;1.40;;
6205;SDS011;3136;48.788;9.772;2022-07-17T14:50:35;1.30;;;1.20;;
6205;SDS011;3136;48.788;9.772;2022-07-17T14:53:01;2.17;;;1.63;;
6205;SDS011;3136;48.788;9.772;2022-07-17T14:55:26;1.50;;;1.40;;
6205;SDS011;3136;48.788;9.772;2022-07-17T14:57:52;2.17;;;1.52;;
6205;SDS011;3136;48.788;9.772;2022-07-17T15:00:18;5.10;;;1.40;;
6205;SDS011;3136;48.788;9.772;2022-07-17T15:02:44;1.75;;;1.40;;
6205;SDS011;3136;48.788;9.772;2022-07-17T15:05:09;1.65;;;1.48;;
6205;SDS011;3136;48.788;9.772;2022-07-17T15:07:35;4.60;;;1.70;;
6205;SDS011;3136;48.788;9.772;2022-07-17T15:10:01;3.90;;;1.40;;
6205;SDS011;3136;48.788;9.772;2022-07-17T15:12:27;6.20;;;1.50;;
6205;SDS011;3136;48.788;9.772;2022-07-17T15:14:53;2.25;;;1.30;;
6205;SDS011;3136;48.788;9.772;2022-07-17T15:17:18;1.65;;;1.30;;
6205;SDS011;3136;48.788;9.772;2022-07-17T15:19:44;1.42;;;1.30;;
6205;SDS011;3136;48.788;9.772;2022-07-17T15:22:10;1.40;;;1.30;;
6205;SDS011;3136;48.788;9.772;2022-07-17T15:24:35;1.42;;;1.25;;
6205;SDS011;3136;48.788;9.772;2022-07-17T15:27:01;1.92;;;1.52;;
6205;SDS011;3136;48.788;9.772;2022-07-17T15:29:27;1.50;;;1.40;;